Time,TemperatureF,DewpointF,PressureIn,WindDirection,WindDirectionDegrees,WindSpeedMPH,WindSpeedGustMPH,Humidity,HourlyPrecipIn,Conditions,Clouds,dailyrainin,SolarRadiationWatts/m^2,SoftwareType,DateUTC
2013-07-02 00:01:00,97.0,57.0,-100.00,SW,219,8.0,18.0,27,0.00,,,0.00,0.000000,,2013-07-02 07:01:00,
2013-07-02 00:11:00,97.0,57.0,-100.00,SW,219,8.0,18.0,27,0.00,,,0.00,0.000000,,2013-07-02 07:11:00,
2013-07-02 00:22:00,97.0,57.0,-100.00,SW,219,8.0,18.0,27,0.00,,,0.00,0.000000,,2013-07-02 07:22:00,
2013-07-02 00:53:00,93.0,60.0,-100.00,East,101,0.0,13.0,34,0.00,,,0.00,0.000000,,2013-07-02 07:53:00,
2013-07-02 01:02:00,93.0,60.0,-100.00,East,101,0.0,13.0,34,0.00,,,0.00,0.000000,,2013-07-02 08:02:00,
2013-07-02 01:12:00,93.0,60.0,-100.00,East,101,0.0,13.0,34,0.00,,,0.00,0.000000,,2013-07-02 08:12:00,
2013-07-02 01:22:00,93.0,60.0,-100.00,East,101,0.0,13.0,34,0.00,,,0.00,0.000000,,2013-07-02 08:22:00,
2013-07-02 01:53:00,91.0,59.0,-100.00,WSW,239,2.0,6.0,34,0.00,,,0.00,0.000000,,2013-07-02 08:53:00,
2013-07-02 02:01:00,91.0,59.0,-100.00,WSW,239,2.0,6.0,34,0.00,,,0.00,0.000000,,2013-07-02 09:01:00,
2013-07-02 02:11:00,91.0,59.0,-100.00,WSW,239,2.0,6.0,34,0.00,,,0.00,0.000000,,2013-07-02 09:11:00,
2013-07-02 02:22:00,91.0,59.0,-100.00,WSW,239,2.0,6.0,34,0.00,,,0.00,0.000000,,2013-07-02 09:22:00,
2013-07-02 02:52:00,93.0,57.0,-100.00,SSW,210,6.0,9.0,30,0.00,,,0.00,0.000000,,2013-07-02 09:52:00,
2013-07-02 03:01:00,93.0,57.0,-100.00,SSW,210,6.0,9.0,30,0.00,,,0.00,0.000000,,2013-07-02 10:01:00,
2013-07-02 03:11:00,93.0,57.0,-100.00,SSW,210,6.0,9.0,30,0.00,,,0.00,0.000000,,2013-07-02 10:11:00,
2013-07-02 03:22:00,93.0,57.0,-100.00,SSW,210,6.0,9.0,30,0.00,,,0.00,0.000000,,2013-07-02 10:22:00,
2013-07-02 03:52:00,92.0,59.0,-100.00,SW,216,5.0,7.0,33,0.00,,,0.00,0.000000,,2013-07-02 10:52:00,
2013-07-02 04:01:00,92.0,59.0,-100.00,SW,216,5.0,7.0,33,0.00,,,0.00,0.000000,,2013-07-02 11:01:00,
2013-07-02 04:11:00,92.0,59.0,-100.00,SW,216,5.0,7.0,33,0.00,,,0.00,0.000000,,2013-07-02 11:11:00,
2013-07-02 04:22:00,92.0,59.0,-100.00,SW,216,5.0,7.0,33,0.00,,,0.00,0.000000,,2013-07-02 11:22:00,
2013-07-02 04:52:00,90.0,54.0,-100.00,SW,220,18.0,27.0,30,0.00,,,0.00,0.000000,,2013-07-02 11:52:00,
2013-07-02 05:01:00,90.0,54.0,-100.00,SW,220,18.0,27.0,30,0.00,,,0.00,0.000000,,2013-07-02 12:01:00,
2013-07-02 05:11:00,90.0,54.0,-100.00,SW,220,18.0,27.0,30,0.00,,,0.00,0.000000,,2013-07-02 12:11:00,
2013-07-02 05:23:00,90.0,54.0,-100.00,SW,220,18.0,27.0,30,0.00,,,0.00,0.000000,,2013-07-02 12:23:00,
2013-07-02 05:52:00,88.0,63.0,-100.00,SSW,197,10.0,25.0,44,0.00,,,0.00,0.000000,,2013-07-02 12:52:00,
2013-07-02 06:01:00,88.0,63.0,-100.00,SSW,197,10.0,25.0,44,0.00,,,0.00,0.000000,,2013-07-02 13:01:00,
2013-07-02 06:11:00,88.0,63.0,-100.00,SSW,197,10.0,25.0,44,0.00,,,0.00,0.000000,,2013-07-02 13:11:00,
2013-07-02 06:22:00,88.0,63.0,-100.00,SSW,197,10.0,25.0,44,0.00,,,0.00,0.000000,,2013-07-02 13:22:00,
2013-07-02 06:52:00,89.0,67.0,-100.00,SSW,213,10.0,18.0,48,0.00,,,0.00,20.000000,,2013-07-02 13:52:00,
2013-07-02 07:01:00,89.0,67.0,-100.00,SSW,213,10.0,18.0,48,0.00,,,0.00,20.000000,,2013-07-02 14:01:00,
2013-07-02 07:11:00,89.0,67.0,-100.00,SSW,213,10.0,18.0,48,0.00,,,0.00,20.000000,,2013-07-02 14:11:00,
2013-07-02 07:22:00,89.0,67.0,-100.00,SSW,213,10.0,18.0,48,0.00,,,0.00,20.000000,,2013-07-02 14:22:00,
2013-07-02 07:53:00,92.0,66.0,-100.00,SE,144,7.0,20.0,42,0.00,,,0.00,84.000000,,2013-07-02 14:53:00,
2013-07-02 08:02:00,92.0,66.0,-100.00,SE,144,7.0,20.0,42,0.00,,,0.00,84.000000,,2013-07-02 15:02:00,
2013-07-02 08:11:00,92.0,66.0,-100.00,SE,144,7.0,20.0,42,0.00,,,0.00,84.000000,,2013-07-02 15:11:00,
2013-07-02 08:22:00,92.0,66.0,-100.00,SE,144,7.0,20.0,42,0.00,,,0.00,84.000000,,2013-07-02 15:22:00,
2013-07-02 08:53:00,94.0,60.0,-100.00,SSE,148,13.0,27.0,33,0.00,,,0.00,351.000000,,2013-07-02 15:53:00,
2013-07-02 09:01:00,94.0,60.0,-100.00,SSE,148,13.0,27.0,33,0.00,,,0.00,351.000000,,2013-07-02 16:01:00,
2013-07-02 09:11:00,94.0,60.0,-100.00,SSE,148,13.0,27.0,33,0.00,,,0.00,351.000000,,2013-07-02 16:11:00,
2013-07-02 09:21:00,94.0,60.0,-100.00,SSE,148,13.0,27.0,33,0.00,,,0.00,351.000000,,2013-07-02 16:21:00,
2013-07-02 09:52:00,95.0,61.0,-100.00,SSW,206,8.0,20.0,33,0.00,,,0.00,457.000000,,2013-07-02 16:52:00,
2013-07-02 10:02:00,95.0,61.0,-100.00,SSW,206,8.0,20.0,33,0.00,,,0.00,457.000000,,2013-07-02 17:02:00,
2013-07-02 10:11:00,95.0,61.0,-100.00,SSW,206,8.0,20.0,33,0.00,,,0.00,457.000000,,2013-07-02 17:11:00,
2013-07-02 10:22:00,95.0,61.0,-100.00,SSW,206,8.0,20.0,33,0.00,,,0.00,457.000000,,2013-07-02 17:22:00,
2013-07-02 11:02:00,96.0,59.0,-100.00,SSW,208,17.0,26.0,30,0.00,,,0.00,589.000000,,2013-07-02 18:02:00,
2013-07-02 11:11:00,96.0,59.0,-100.00,SSW,208,17.0,26.0,30,0.00,,,0.00,589.000000,,2013-07-02 18:11:00,
2013-07-02 11:22:00,96.0,59.0,-100.00,SSW,208,17.0,26.0,30,0.00,,,0.00,589.000000,,2013-07-02 18:22:00,
2013-07-02 11:53:00,99.0,59.0,-100.00,SSW,208,17.0,28.0,27,0.00,,,0.00,784.000000,,2013-07-02 18:53:00,
2013-07-02 12:01:00,99.0,59.0,-100.00,SSW,208,17.0,28.0,27,0.00,,,0.00,784.000000,,2013-07-02 19:01:00,
2013-07-02 12:11:00,99.0,59.0,-100.00,SSW,208,17.0,28.0,27,0.00,,,0.00,784.000000,,2013-07-02 19:11:00,
2013-07-02 12:22:00,99.0,59.0,-100.00,SSW,208,17.0,28.0,27,0.00,,,0.00,784.000000,,2013-07-02 19:22:00,
2013-07-02 12:53:00,103.0,59.0,-100.00,SW,221,17.0,29.0,24,0.00,,,0.00,998.000000,,2013-07-02 19:53:00,
2013-07-02 13:02:00,103.0,59.0,-100.00,SW,221,17.0,29.0,24,0.00,,,0.00,998.000000,,2013-07-02 20:02:00,
2013-07-02 13:11:00,103.0,59.0,-100.00,SW,221,17.0,29.0,24,0.00,,,0.00,998.000000,,2013-07-02 20:11:00,
2013-07-02 13:22:00,103.0,59.0,-100.00,SW,221,17.0,29.0,24,0.00,,,0.00,998.000000,,2013-07-02 20:22:00,
2013-07-02 13:52:00,106.0,59.0,-100.00,SSW,207,10.0,27.0,22,0.00,,,-99.99,1174.000000,,2013-07-02 20:52:00,
2013-07-02 14:02:00,106.0,59.0,-100.00,SSW,207,10.0,27.0,22,0.00,,,-99.99,1174.000000,,2013-07-02 21:02:00,
2013-07-02 14:11:00,106.0,59.0,-100.00,SSW,207,10.0,27.0,22,0.00,,,-99.99,1174.000000,,2013-07-02 21:11:00,
2013-07-02 14:22:00,106.0,59.0,-100.00,SSW,207,10.0,27.0,22,0.00,,,-99.99,1174.000000,,2013-07-02 21:22:00,
2013-07-02 14:52:00,107.0,54.0,-100.00,SW,222,13.0,23.0,18,0.00,,,0.00,1144.000000,,2013-07-02 21:52:00,
2013-07-02 15:01:00,107.0,54.0,-100.00,SW,222,13.0,23.0,18,0.00,,,0.00,1144.000000,,2013-07-02 22:01:00,
2013-07-02 15:11:00,107.0,54.0,-100.00,SW,222,13.0,23.0,18,0.00,,,0.00,1144.000000,,2013-07-02 22:11:00,
2013-07-02 15:22:00,107.0,54.0,-100.00,SW,222,13.0,23.0,18,0.00,,,0.00,1144.000000,,2013-07-02 22:22:00,
2013-07-02 15:53:00,109.0,53.0,-100.00,SW,227,13.0,22.0,16,0.00,,,0.00,1005.000000,,2013-07-02 22:53:00,
2013-07-02 16:01:00,109.0,53.0,-100.00,SW,227,13.0,22.0,16,0.00,,,0.00,1005.000000,,2013-07-02 23:01:00,
2013-07-02 16:11:00,109.0,53.0,-100.00,SW,227,13.0,22.0,16,0.00,,,0.00,1005.000000,,2013-07-02 23:11:00,
2013-07-02 16:22:00,109.0,53.0,-100.00,SW,227,13.0,22.0,16,0.00,,,0.00,1005.000000,,2013-07-02 23:22:00,
2013-07-02 16:52:00,110.0,50.0,-100.00,SSW,210,11.0,18.0,14,0.00,,,0.00,791.000000,,2013-07-02 23:52:00,
2013-07-02 17:01:00,110.0,50.0,-100.00,SSW,210,11.0,18.0,14,0.00,,,0.00,791.000000,,2013-07-03 00:01:00,
2013-07-02 17:11:00,110.0,50.0,-100.00,SSW,210,11.0,18.0,14,0.00,,,0.00,791.000000,,2013-07-03 00:11:00,
2013-07-02 17:22:00,110.0,50.0,-100.00,SSW,210,11.0,18.0,14,0.00,,,0.00,791.000000,,2013-07-03 00:22:00,
2013-07-02 17:52:00,111.0,53.0,-100.00,SW,219,10.0,22.0,15,0.00,,,0.00,470.000000,,2013-07-03 00:52:00,
2013-07-02 18:01:00,111.0,53.0,-100.00,SW,219,10.0,22.0,15,0.00,,,0.00,470.000000,,2013-07-03 01:01:00,
2013-07-02 18:11:00,111.0,53.0,-100.00,SW,219,10.0,22.0,15,0.00,,,0.00,470.000000,,2013-07-03 01:11:00,
2013-07-02 18:22:00,111.0,53.0,-100.00,SW,219,10.0,22.0,15,0.00,,,0.00,470.000000,,2013-07-03 01:22:00,
2013-07-02 18:59:00,108.0,52.0,-100.00,SW,229,11.0,21.0,16,0.00,,,0.00,198.000000,,2013-07-03 01:59:00,
2013-07-02 19:02:00,108.0,52.0,-100.00,SW,229,11.0,21.0,16,0.00,,,0.00,198.000000,,2013-07-03 02:02:00,
2013-07-02 19:12:00,108.0,52.0,-100.00,SW,229,11.0,21.0,16,0.00,,,0.00,198.000000,,2013-07-03 02:12:00,
2013-07-02 19:23:00,108.0,52.0,-100.00,SW,229,11.0,21.0,16,0.00,,,0.00,198.000000,,2013-07-03 02:23:00,
2013-07-02 20:12:00,106.0,47.0,-100.00,WSW,255,7.0,17.0,14,0.00,,,0.00,135.000000,,2013-07-03 03:12:00,
2013-07-02 20:25:00,106.0,47.0,-100.00,WSW,255,7.0,17.0,14,0.00,,,0.00,135.000000,,2013-07-03 03:25:00,
2013-07-02 20:58:00,105.0,51.0,-100.00,West,265,2.0,13.0,17,0.00,,,0.00,6.000000,,2013-07-03 03:58:00,
2013-07-02 21:01:00,105.0,51.0,-100.00,West,265,2.0,13.0,17,0.00,,,0.00,6.000000,,2013-07-03 04:01:00,
2013-07-02 21:11:00,105.0,51.0,-100.00,West,265,2.0,13.0,17,0.00,,,0.00,6.000000,,2013-07-03 04:11:00,
2013-07-02 21:22:00,105.0,51.0,-100.00,West,265,2.0,13.0,17,0.00,,,0.00,6.000000,,2013-07-03 04:22:00,
2013-07-02 21:52:00,103.0,51.0,-100.00,SSW,201,7.0,12.0,18,0.00,,,0.00,0.000000,,2013-07-03 04:52:00,
2013-07-02 22:01:00,103.0,51.0,-100.00,SSW,201,7.0,12.0,18,0.00,,,0.00,0.000000,,2013-07-03 05:01:00,
2013-07-02 22:11:00,103.0,51.0,-100.00,SSW,201,7.0,12.0,18,0.00,,,0.00,0.000000,,2013-07-03 05:11:00,
2013-07-02 22:23:00,103.0,51.0,-100.00,SSW,201,7.0,12.0,18,0.00,,,0.00,0.000000,,2013-07-03 05:23:00,
2013-07-02 22:59:00,95.0,62.0,-100.00,SW,223,11.0,19.0,34,0.00,,,0.00,0.000000,,2013-07-03 05:59:00,
2013-07-02 23:03:00,95.0,62.0,-100.00,SW,223,11.0,19.0,34,0.00,,,0.00,0.000000,,2013-07-03 06:03:00,
2013-07-02 23:12:00,95.0,62.0,-100.00,SW,223,11.0,19.0,34,0.00,,,0.00,0.000000,,2013-07-03 06:12:00,
2013-07-02 23:57:00,92.0,60.0,-100.00,SSW,201,8.0,16.0,35,0.00,,,0.00,0.000000,,2013-07-03 06:57:00,